Time;durP1;ratioP1;P1;durP2;ratioP2;P2;SDS_P1;SDS_P2;PMS_P1;PMS_P2;Temp;Humidity;BMP_temperature;BMP_pressure;BME280_temperature;BME280_humidity;BME280_pressure;Samples;Min_cycle;Max_cycle;Signal;HPM_P1;HPM_P2
2022/01/02 00:00:00;;;;;;;14.07;4.93;;;11.30;99.90;;;;;;5096543;28;20058;-74
2022/01/02 00:02:29;;;;;;;15.65;5.43;;;11.40;99.90;;;;;;5113824;28;20051;-74
2022/01/02 00:05:19;;;;;;;16.95;5.75;;;11.30;99.90;;;;;;5079494;28;20044;-76
2022/01/02 00:08:04;;;;;;;15.75;5.07;;;11.30;99.90;;;;;;5113870;28;20055;-73
2022/01/02 00:10:45;;;;;;;16.13;4.93;;;11.20;99.90;;;;;;5114231;28;20044;-73
2022/01/02 00:13:17;;;;;;;12.20;5.18;;;11.20;99.90;;;;;;5114460;28;20134;-72
2022/01/02 00:15:44;;;;;;;14.88;5.72;;;11.10;99.90;;;;;;5078964;28;20043;-75
2022/01/02 00:18:13;;;;;;;16.80;5.20;;;11.10;99.90;;;;;;5096146;28;20111;-73
2022/01/02 00:20:48;;;;;;;12.00;5.28;;;11.10;99.90;;;;;;5113152;28;20054;-78
2022/01/02 00:23:21;;;;;;;13.55;5.22;;;11.10;99.90;;;;;;5113836;28;20043;-74
2022/01/02 00:25:52;;;;;;;16.80;5.35;;;11.10;99.90;;;;;;5129570;27;20568;-72
2022/01/02 00:28:19;;;;;;;13.98;5.43;;;11.10;99.90;;;;;;5113757;28;20043;-74
2022/01/02 00:30:48;;;;;;;11.68;5.25;;;11.10;99.90;;;;;;5095762;28;20067;-73
2022/01/02 00:33:14;;;;;;;16.25;5.55;;;11.00;99.90;;;;;;5113836;28;20044;-73
2022/01/02 00:35:39;;;;;;;16.33;5.63;;;11.10;99.90;;;;;;5079225;28;20097;-77
2022/01/02 00:38:07;;;;;;;13.00;5.55;;;11.10;99.90;;;;;;5096028;28;20054;-74
2022/01/02 00:40:34;;;;;;;;;;;11.10;99.90;;;;;;5095882;28;20445;-73
2022/01/02 00:43:04;;;;;;;16.40;6.13;;;11.10;99.90;;;;;;5095806;28;19966;-72
2022/01/02 00:45:40;;;;;;;14.40;5.50;;;11.10;99.90;;;;;;5114072;28;20407;-72
2022/01/02 00:48:26;;;;;;;12.17;4.93;;;11.10;99.90;;;;;;5129414;27;20036;-72
2022/01/02 00:51:03;;;;;;;17.00;5.30;;;11.10;99.90;;;;;;5113858;28;20145;-72
2022/01/02 00:53:34;;;;;;;11.50;5.38;;;11.10;99.90;;;;;;5112503;28;20058;-72
2022/01/02 00:56:02;;;;;;;13.95;5.13;;;11.10;99.90;;;;;;5095725;28;20039;-71
2022/01/02 00:58:58;;;;;;;16.38;5.88;;;11.10;99.90;;;;;;5095375;28;20380;-72
2022/01/02 01:01:28;;;;;;;15.03;5.70;;;11.10;99.90;;;;;;5094976;28;20108;-72
2022/01/02 01:03:55;;;;;;;19.65;5.55;;;11.10;99.90;;;;;;5128858;27;20055;-73
2022/01/02 01:06:25;;;;;;;16.45;5.72;;;11.10;99.90;;;;;;5113050;28;20040;-73
2022/01/02 01:08:56;;;;;;;14.27;5.93;;;11.10;99.90;;;;;;5094856;28;20134;-74
2022/01/02 01:11:26;;;;;;;14.27;5.35;;;11.10;99.90;;;;;;5129317;27;20047;-73
2022/01/02 01:13:53;;;;;;;14.60;5.78;;;11.10;99.90;;;;;;5112926;28;20050;-74
2022/01/02 01:16:20;;;;;;;12.77;5.22;;;11.10;99.90;;;;;;5077871;28;20108;-73
2022/01/02 01:18:46;;;;;;;14.55;5.30;;;11.10;99.90;;;;;;5095029;28;20057;-76
2022/01/02 01:21:12;;;;;;;19.67;5.88;;;11.10;99.90;;;;;;5112649;28;20121;-73
2022/01/02 01:23:39;;;;;;;17.73;5.30;;;11.10;99.90;;;;;;5094871;28;20131;-73
2022/01/02 01:26:08;;;;;;;14.52;6.07;;;11.10;99.90;;;;;;5078277;28;20119;-74
2022/01/02 01:28:34;;;;;;;17.58;5.38;;;11.10;99.90;;;;;;5095152;28;20096;-72
2022/01/02 01:31:00;;;;;;;18.23;5.93;;;11.10;99.90;;;;;;5078814;28;20051;-73
2022/01/02 01:33:26;;;;;;;17.33;5.88;;;11.10;99.90;;;;;;5095901;28;20039;-73
2022/01/02 01:35:52;;;;;;;11.88;5.78;;;11.10;99.90;;;;;;5116644;28;20047;-74
2022/01/02 01:38:18;;;;;;;18.08;5.60;;;11.10;99.90;;;;;;5117022;28;20077;-74
2022/01/02 01:40:57;;;;;;;18.13;5.57;;;11.10;99.90;;;;;;5116934;28;20101;-73
2022/01/02 01:43:36;;;;;;;16.48;5.72;;;11.10;99.90;;;;;;5133153;27;20050;-74
2022/01/02 01:46:03;;;;;;;16.48;5.60;;;11.00;99.90;;;;;;5098605;28;20055;-74
2022/01/02 01:48:30;;;;;;;17.73;5.20;;;11.00;99.90;;;;;;5132528;27;20067;-72
2022/01/02 01:50:55;;;;;;;16.13;5.38;;;11.00;99.90;;;;;;5132276;27;20056;-72
2022/01/02 01:53:21;;;;;;;18.23;5.63;;;11.00;99.90;;;;;;5116503;28;20047;-73
2022/01/02 01:55:48;;;;;;;17.15;6.15;;;11.00;99.90;;;;;;5116318;28;20059;-78
2022/01/02 01:58:15;;;;;;;18.75;5.90;;;11.00;99.90;;;;;;5097015;28;20055;-73
2022/01/02 02:00:41;;;;;;;17.52;6.18;;;11.00;99.90;;;;;;5116860;28;20039;-74
2022/01/02 02:03:07;;;;;;;19.55;6.30;;;11.00;99.90;;;;;;5098291;28;20127;-74
2022/01/02 02:05:33;;;;;;;20.70;6.15;;;11.10;99.90;;;;;;5116412;28;20127;-74
2022/01/02 02:07:59;;;;;;;17.83;5.60;;;11.10;99.90;;;;;;5116383;28;20051;-76
2022/01/02 02:10:35;;;;;;;20.13;5.93;;;11.10;99.90;;;;;;5098333;28;20105;-74
2022/01/02 02:13:04;;;;;;;18.70;6.07;;;11.10;99.90;;;;;;5098462;28;20050;-74
2022/01/02 02:15:29;;;;;;;19.80;6.28;;;11.10;99.90;;;;;;5116343;28;20043;-73
2022/01/02 02:17:55;;;;;;;16.80;5.38;;;11.10;99.90;;;;;;5116493;28;20046;-75
2022/01/02 02:20:23;;;;;;;13.52;5.50;;;11.10;99.90;;;;;;5097762;28;20115;-75
2022/01/02 02:22:52;;;;;;;17.55;5.85;;;11.10;99.90;;;;;;5132431;27;20055;-74
2022/01/02 02:25:22;;;;;;;20.48;5.72;;;11.20;99.90;;;;;;5132291;27;20399;-74
2022/01/02 02:27:50;;;;;;;18.73;5.75;;;11.20;99.90;;;;;;5081053;28;20042;-74
2022/01/02 02:30:16;;;;;;;19.15;6.40;;;11.20;99.90;;;;;;5115931;28;20127;-73
2022/01/02 02:32:42;;;;;;;16.73;5.60;;;11.20;99.90;;;;;;5097881;28;20147;-74
2022/01/02 02:35:08;;;;;;;18.48;6.15;;;11.20;99.90;;;;;;5115935;28;20385;-74
2022/01/02 02:37:34;;;;;;;17.63;6.38;;;11.20;99.90;;;;;;5115599;28;20048;-74
2022/01/02 02:40:00;;;;;;;19.13;5.97;;;11.20;99.90;;;;;;5097292;28;20100;-75
2022/01/02 02:42:39;;;;;;;16.10;5.65;;;11.20;99.90;;;;;;5115645;28;20058;-74
2022/01/02 02:50:46;;;;;;;17.40;6.20;;;11.20;99.90;;;;;;5100110;28;20056;-73
2022/01/02 02:53:14;;;;;;;19.13;6.20;;;11.20;99.90;;;;;;5115329;28;20048;-74
2022/01/02 02:55:45;;;;;;;22.42;6.88;;;11.10;99.90;;;;;;5115868;28;20448;-73
2022/01/02 02:58:39;;;;;;;20.25;5.95;;;11.10;99.90;;;;;;5115956;28;20055;-74
2022/01/02 03:01:00;;;;;;;16.35;6.00;;;11.10;99.90;;;;;;5115439;28;20051;-75
2022/01/02 03:03:26;;;;;;;20.58;6.47;;;11.10;99.90;;;;;;5115106;28;20097;-75
2022/01/02 03:05:52;;;;;;;18.83;5.88;;;11.10;99.90;;;;;;5096909;28;20077;-74
2022/01/02 03:08:18;;;;;;;20.08;5.70;;;11.10;99.90;;;;;;5079762;28;20056;-74
2022/01/02 03:10:44;;;;;;;19.83;6.28;;;11.00;99.90;;;;;;5114102;28;20055;-74
2022/01/02 03:13:10;;;;;;;19.48;6.18;;;11.00;99.90;;;;;;5114981;28;20047;-73
2022/01/02 03:15:36;;;;;;;21.67;6.10;;;11.00;99.90;;;;;;5114893;28;20043;-73
2022/01/02 03:18:02;;;;;;;17.90;6.68;;;11.00;99.90;;;;;;5096828;28;20052;-74
2022/01/02 03:20:27;;;;;;;18.52;5.75;;;11.00;99.90;;;;;;5113804;28;20504;-73
2022/01/02 03:22:53;;;;;;;17.13;6.18;;;11.00;99.90;;;;;;5096443;28;20055;-74
2022/01/02 03:25:19;;;;;;;17.83;5.72;;;11.00;99.90;;;;;;5096707;28;20101;-74
2022/01/02 03:27:45;;;;;;;20.77;5.55;;;11.00;99.90;;;;;;5063196;28;20054;-74
2022/01/02 03:30:12;;;;;;;18.35;5.97;;;11.10;99.90;;;;;;5096656;28;20379;-73
2022/01/02 03:32:38;;;;;;;18.90;6.65;;;11.00;99.90;;;;;;5114741;28;20445;-73
2022/01/02 03:35:05;;;;;;;18.55;6.03;;;11.00;99.90;;;;;;5130341;27;20083;-74
2022/01/02 03:37:33;;;;;;;16.92;5.68;;;11.00;99.90;;;;;;5096327;28;20047;-72
2022/01/02 03:39:59;;;;;;;15.68;5.45;;;11.00;99.90;;;;;;5096259;28;20184;-74
2022/01/02 03:42:26;;;;;;;17.80;5.97;;;11.00;99.90;;;;;;5113213;28;20059;-72
2022/01/02 03:44:52;;;;;;;21.55;5.88;;;11.00;99.90;;;;;;5114322;28;20050;-74
2022/01/02 03:47:17;;;;;;;17.42;6.20;;;11.00;99.90;;;;;;5096084;28;20039;-73
2022/01/02 03:49:44;;;;;;;27.80;6.13;;;11.10;99.90;;;;;;5079113;28;20375;-73
2022/01/02 03:52:09;;;;;;;19.88;5.88;;;11.00;99.90;;;;;;5114035;28;20048;-74
2022/01/02 03:54:35;;;;;;;24.65;5.93;;;11.00;99.90;;;;;;5114503;28;20054;-72
2022/01/02 03:57:01;;;;;;;21.20;6.15;;;11.00;99.90;;;;;;5095286;28;20054;-74
2022/01/02 03:59:27;;;;;;;19.25;6.32;;;11.10;99.90;;;;;;5113872;28;20035;-73
2022/01/02 04:01:53;;;;;;;20.20;6.03;;;11.10;99.90;;;;;;5095809;28;20043;-73
2022/01/02 04:04:18;;;;;;;20.75;6.15;;;11.10;99.90;;;;;;5114648;28;20451;-74
2022/01/02 04:06:44;;;;;;;18.98;5.60;;;11.10;99.90;;;;;;5094960;28;20051;-73
2022/01/02 04:09:10;;;;;;;15.95;6.07;;;11.10;99.90;;;;;;5079300;28;20460;-72
2022/01/02 04:11:36;;;;;;;22.80;5.68;;;11.00;99.90;;;;;;5062597;28;20047;-72
2022/01/02 04:14:02;;;;;;;19.15;5.57;;;11.10;99.90;;;;;;5078327;28;20043;-73
2022/01/02 04:16:28;;;;;;;16.38;5.50;;;11.10;99.90;;;;;;5113623;28;20040;-74
2022/01/02 04:18:53;;;;;;;19.80;5.32;;;11.10;99.90;;;;;;5114399;28;20160;-73
2022/01/02 04:21:19;;;;;;;20.27;5.85;;;11.10;99.90;;;;;;5095204;28;20100;-72
2022/01/02 04:23:45;;;;;;;20.42;5.90;;;11.20;99.90;;;;;;5114207;28;20055;-72
2022/01/02 04:26:11;;;;;;;22.15;5.38;;;11.20;99.90;;;;;;5095886;28;20108;-73
2022/01/02 04:28:36;;;;;;;22.73;5.50;;;11.30;99.90;;;;;;5095959;28;20046;-72
2022/01/02 04:31:02;;;;;;;24.48;5.50;;;11.20;99.90;;;;;;5078275;28;20139;-75
2022/01/02 04:33:28;;;;;;;22.38;5.28;;;11.30;99.90;;;;;;5095465;28;20092;-73
2022/01/02 04:35:54;;;;;;;22.77;4.78;;;11.30;99.90;;;;;;5113263;28;20085;-73
2022/01/02 04:38:20;;;;;;;12.52;4.45;;;11.30;99.90;;;;;;5078188;28;20403;-73
2022/01/02 04:40:48;;;;;;;21.23;5.28;;;11.40;99.90;;;;;;5095259;28;20502;-73
2022/01/02 04:43:14;;;;;;;18.95;5.53;;;11.40;99.90;;;;;;5113233;28;20047;-73
2022/01/02 04:45:40;;;;;;;16.05;4.32;;;11.40;99.90;;;;;;5113565;28;20241;-73
2022/01/02 04:48:05;;;;;;;19.60;5.65;;;11.40;99.90;;;;;;5113442;28;20130;-75
2022/01/02 04:50:32;;;;;;;18.60;4.53;;;11.40;99.90;;;;;;5113216;28;20044;-72
2022/01/02 04:52:57;;;;;;;23.93;5.37;;;11.40;99.90;;;;;;5113143;28;20043;-74
2022/01/02 04:55:23;;;;;;;18.00;5.10;;;11.40;99.90;;;;;;5112776;28;20112;-73
2022/01/02 04:57:49;;;;;;;20.30;4.88;;;11.50;99.90;;;;;;5113152;28;20044;-73
2022/01/02 05:00:15;;;;;;;23.05;5.30;;;11.50;99.90;;;;;;5077363;28;20104;-75
2022/01/02 05:02:41;;;;;;;21.55;4.72;;;11.40;99.90;;;;;;5112928;28;20039;-72
2022/01/02 05:05:07;;;;;;;20.05;4.80;;;11.40;99.90;;;;;;5112667;28;20070;-73
2022/01/02 05:07:33;;;;;;;21.77;4.25;;;11.40;99.90;;;;;;5094248;28;20498;-73
2022/01/02 05:10:00;;;;;;;17.38;4.95;;;11.50;99.90;;;;;;5094378;28;20051;-72
2022/01/02 05:12:26;;;;;;;15.82;4.25;;;11.50;99.90;;;;;;5112851;28;20172;-72
2022/01/02 05:14:53;;;;;;;19.05;4.22;;;11.50;99.90;;;;;;5113577;28;20035;-74
2022/01/02 05:17:19;;;;;;;14.77;4.30;;;11.60;99.90;;;;;;5112657;28;20058;-73
2022/01/02 05:19:45;;;;;;;18.13;4.22;;;11.60;99.90;;;;;;5112919;28;20055;-73
2022/01/02 05:22:11;;;;;;;19.63;4.30;;;11.60;99.90;;;;;;5113129;28;20047;-75
2022/01/02 05:24:37;;;;;;;19.33;4.80;;;11.60;99.90;;;;;;5094236;28;20475;-73
2022/01/02 05:27:03;;;;;;;14.32;3.65;;;11.60;99.90;;;;;;5112702;28;20101;-73
2022/01/02 05:29:28;;;;;;;13.68;4.13;;;11.70;99.90;;;;;;5129359;28;20226;-75
2022/01/02 05:31:54;;;;;;;14.65;3.60;;;11.80;99.90;;;;;;5112716;28;20119;-73
2022/01/02 05:34:20;;;;;;;18.55;4.03;;;11.80;99.90;;;;;;5112757;28;20060;-72
2022/01/02 05:36:48;;;;;;;16.08;3.80;;;11.80;99.90;;;;;;5112365;28;20135;-74
2022/01/02 05:39:18;;;;;;;12.50;3.83;;;11.90;99.90;;;;;;5112692;28;20092;-72
2022/01/02 05:41:45;;;;;;;18.13;3.45;;;11.90;99.90;;;;;;5112468;28;20163;-73
2022/01/02 05:44:11;;;;;;;21.60;3.83;;;12.00;99.90;;;;;;5094282;28;20135;-73
2022/01/02 05:46:37;;;;;;;24.08;4.28;;;12.00;99.90;;;;;;5112347;28;20126;-72
2022/01/02 05:49:03;;;;;;;16.17;3.85;;;12.10;99.90;;;;;;5077269;28;20044;-73
2022/01/02 05:51:28;;;;;;;19.83;3.50;;;12.10;99.90;;;;;;5076611;28;20103;-72
2022/01/02 05:53:54;;;;;;;16.88;3.50;;;12.00;99.90;;;;;;5094804;28;20050;-73
2022/01/02 05:56:20;;;;;;;19.90;3.90;;;12.00;99.90;;;;;;5112722;28;20036;-72
2022/01/02 05:58:46;;;;;;;16.77;3.83;;;12.00;99.90;;;;;;5094048;28;20070;-73
2022/01/02 06:01:11;;;;;;;15.85;3.53;;;12.00;99.90;;;;;;5077093;28;20040;-74
2022/01/02 06:03:37;;;;;;;18.05;3.90;;;12.00;99.90;;;;;;5112337;28;20127;-73
2022/01/02 06:06:03;;;;;;;14.13;2.83;;;12.00;99.90;;;;;;5112944;28;20036;-73
2022/01/02 06:08:29;;;;;;;18.98;3.92;;;12.00;99.90;;;;;;5112233;28;20090;-73
2022/01/02 06:10:55;;;;;;;18.27;3.20;;;12.10;99.90;;;;;;5094198;28;20143;-73
2022/01/02 06:13:20;;;;;;;13.38;3.38;;;12.00;99.90;;;;;;5112745;28;20122;-73
2022/01/02 06:15:46;;;;;;;15.93;3.90;;;12.00;99.90;;;;;;5128690;28;20183;-73
2022/01/02 06:18:12;;;;;;;16.13;3.47;;;12.00;99.90;;;;;;5112788;28;20116;-74
2022/01/02 06:20:38;;;;;;;11.68;3.35;;;12.00;99.90;;;;;;5130531;27;20047;-72
2022/01/02 06:23:04;;;;;;;12.30;3.38;;;12.00;99.90;;;;;;5097960;28;20104;-73
2022/01/02 06:25:30;;;;;;;19.08;3.40;;;12.00;99.90;;;;;;5116542;28;20047;-72
2022/01/02 06:27:55;;;;;;;17.60;3.78;;;11.90;99.90;;;;;;5115738;28;20047;-72
2022/01/02 06:30:21;;;;;;;17.42;4.05;;;11.90;99.90;;;;;;5115485;28;20051;-73
2022/01/02 06:32:54;;;;;;;12.85;3.47;;;11.90;99.90;;;;;;5115681;28;20104;-72
2022/01/02 06:35:24;;;;;;;17.67;3.70;;;12.00;99.90;;;;;;5081460;28;20119;-73
2022/01/02 06:37:51;;;;;;;11.43;3.30;;;11.90;99.90;;;;;;5098217;28;20491;-72
2022/01/02 06:40:17;;;;;;;18.85;3.72;;;11.90;99.90;;;;;;5080777;28;20051;-73
2022/01/02 06:42:42;;;;;;;19.10;3.67;;;11.90;99.90;;;;;;5080158;28;20036;-72
2022/01/02 06:45:08;;;;;;;19.70;3.78;;;11.90;99.90;;;;;;5115371;28;20221;-73
2022/01/02 06:47:34;;;;;;;16.08;3.55;;;11.90;99.90;;;;;;5097278;28;20487;-74
2022/01/02 06:50:00;;;;;;;15.80;3.10;;;11.90;99.90;;;;;;5097108;28;20044;-74
2022/01/02 06:52:25;;;;;;;15.52;3.70;;;11.90;99.90;;;;;;5114904;28;20039;-72
2022/01/02 06:54:53;;;;;;;16.95;3.20;;;11.90;99.90;;;;;;5097060;28;20145;-73
2022/01/02 06:57:20;;;;;;;13.35;3.90;;;11.90;99.90;;;;;;5115260;28;20511;-74
2022/01/02 06:59:46;;;;;;;;;;;11.90;99.90;;;;;;5080902;28;20138;-73
2022/01/02 07:02:12;;;;;;;14.10;3.90;;;11.90;99.90;;;;;;5097346;28;20021;-72
2022/01/02 07:04:38;;;;;;;18.92;3.78;;;11.90;99.90;;;;;;5097806;28;20147;-73
2022/01/02 07:07:03;;;;;;;16.33;4.03;;;11.90;99.90;;;;;;5097106;28;20523;-73
2022/01/02 07:09:31;;;;;;;17.42;4.07;;;11.90;99.90;;;;;;5080656;28;20043;-73
2022/01/02 07:11:58;;;;;;;9.70;3.47;;;12.00;99.90;;;;;;5097420;28;20155;-73
2022/01/02 07:14:26;;;;;;;14.02;4.15;;;11.90;99.90;;;;;;5115045;28;20456;-74
2022/01/02 07:16:56;;;;;;;11.80;3.75;;;11.90;99.90;;;;;;5113920;28;20078;-73
2022/01/02 07:19:22;;;;;;;13.07;3.50;;;12.00;99.90;;;;;;5115625;28;20056;-72
2022/01/02 07:21:49;;;;;;;12.18;3.80;;;12.00;99.90;;;;;;5096390;28;20551;-72
2022/01/02 07:24:15;;;;;;;14.45;4.07;;;12.00;99.90;;;;;;5097261;28;20055;-73
2022/01/02 07:26:41;;;;;;;14.90;3.70;;;12.00;99.90;;;;;;5113404;28;20051;-74
2022/01/02 07:29:07;;;;;;;13.70;4.60;;;12.10;99.90;;;;;;5114755;28;20044;-73
2022/01/02 07:31:32;;;;;;;14.38;4.03;;;12.10;99.90;;;;;;5095117;28;20046;-74
2022/01/02 07:33:58;;;;;;;17.05;4.25;;;12.10;99.90;;;;;;5113705;27;20051;-74
2022/01/02 07:36:24;;;;;;;14.68;4.53;;;12.00;99.90;;;;;;5096100;28;20097;-75
2022/01/02 07:38:50;;;;;;;14.43;3.80;;;12.00;99.90;;;;;;5114599;28;20043;-74
2022/01/02 07:41:16;;;;;;;12.27;3.85;;;12.00;99.90;;;;;;5114306;28;20044;-73
2022/01/02 07:43:42;;;;;;;11.95;4.20;;;11.90;99.90;;;;;;5114487;28;20039;-74
2022/01/02 07:46:08;;;;;;;13.93;4.45;;;11.90;99.90;;;;;;5079115;28;20139;-72
2022/01/02 07:48:34;;;;;;;15.63;4.30;;;11.80;99.90;;;;;;5114176;28;20492;-74
2022/01/02 07:50:59;;;;;;;11.35;4.10;;;11.80;99.90;;;;;;5130026;27;20043;-72
2022/01/02 07:53:25;;;;;;;11.57;4.07;;;11.80;99.90;;;;;;5113683;28;20110;-73
2022/01/02 07:55:51;;;;;;;14.45;3.90;;;11.80;99.90;;;;;;5113474;27;20040;-73
2022/01/02 07:58:17;;;;;;;18.85;4.65;;;11.70;99.90;;;;;;5114246;28;20482;-74
2022/01/02 08:00:43;;;;;;;14.18;4.97;;;11.80;99.90;;;;;;5114546;28;20192;-73
2022/01/02 08:03:09;;;;;;;18.07;4.47;;;11.70;99.90;;;;;;5114892;28;20047;-73
2022/01/02 08:05:35;;;;;;;14.75;3.85;;;11.80;99.90;;;;;;5113799;28;20321;-73
2022/01/02 08:08:01;;;;;;;12.07;4.15;;;11.80;99.90;;;;;;5078935;28;20104;-72
2022/01/02 08:10:27;;;;;;;16.33;4.28;;;11.70;99.90;;;;;;5114006;28;20133;-73
2022/01/02 08:12:53;;;;;;;13.63;4.87;;;11.80;99.90;;;;;;5095261;28;20475;-71
2022/01/02 08:15:20;;;;;;;20.02;4.82;;;11.60;99.90;;;;;;5129462;27;20040;-73
2022/01/02 08:17:46;;;;;;;15.63;4.25;;;11.60;99.90;;;;;;5095514;28;20055;-72
2022/01/02 08:20:12;;;;;;;12.30;4.10;;;11.50;99.90;;;;;;5113422;28;20426;-72
2022/01/02 08:22:37;;;;;;;15.90;4.95;;;11.50;99.90;;;;;;5113804;28;20093;-72
2022/01/02 08:25:05;;;;;;;13.00;4.32;;;11.40;99.90;;;;;;5095232;28;20036;-73
2022/01/02 08:27:31;;;;;;;16.88;4.40;;;11.40;99.90;;;;;;5094931;28;20146;-71
2022/01/02 08:29:56;;;;;;;12.68;4.78;;;11.40;99.90;;;;;;5095235;28;20091;-72
2022/01/02 08:32:22;;;;;;;14.30;4.30;;;11.40;99.90;;;;;;5078534;28;20043;-72
2022/01/02 08:34:48;;;;;;;12.80;3.85;;;11.40;99.90;;;;;;5129620;27;20036;-72
2022/01/02 08:37:15;;;;;;;13.35;3.72;;;11.40;99.90;;;;;;5111820;27;20126;-72
2022/01/02 08:39:45;;;;;;;18.63;4.53;;;11.40;99.90;;;;;;5094914;28;20479;-73
2022/01/02 08:42:12;;;;;;;12.68;4.00;;;11.40;99.90;;;;;;5112007;28;20438;-72
2022/01/02 08:44:39;;;;;;;;;;;11.40;99.90;;;;;;5095158;28;20079;-71
2022/01/02 08:47:05;;;;;;;;;;;11.40;99.90;;;;;;5113442;28;19924;-72
2022/01/02 08:49:31;;;;;;;12.52;3.45;;;11.40;99.90;;;;;;5112969;28;19926;-72
2022/01/02 08:51:56;;;;;;;16.23;3.58;;;11.40;99.90;;;;;;5094613;28;20367;-74
2022/01/02 08:54:22;;;;;;;10.55;3.40;;;11.50;99.90;;;;;;5112943;28;20047;-73
2022/01/02 08:56:48;;;;;;;16.65;3.78;;;11.60;99.90;;;;;;5061273;28;20054;-73
2022/01/02 08:59:14;;;;;;;10.18;3.00;;;11.60;99.90;;;;;;5112561;28;20070;-72
2022/01/02 09:01:39;;;;;;;11.85;3.63;;;11.60;99.90;;;;;;5112282;28;20051;-73
2022/01/02 09:04:05;;;;;;;10.13;3.25;;;11.70;99.90;;;;;;5113003;28;20042;-74
2022/01/02 09:06:31;;;;;;;12.20;3.67;;;11.70;99.90;;;;;;5128272;27;20448;-73
2022/01/02 09:08:57;;;;;;;13.32;3.30;;;11.70;99.90;;;;;;5128132;27;20134;-73
2022/01/02 09:11:23;;;;;;;18.13;4.18;;;11.70;99.90;;;;;;5113037;28;20505;-73
2022/01/02 09:13:49;;;;;;;9.80;3.93;;;11.60;99.90;;;;;;5094526;28;20051;-73
2022/01/02 09:16:15;;;;;;;11.80;3.95;;;11.60;99.90;;;;;;5112578;28;20487;-73
2022/01/02 09:18:41;;;;;;;13.23;4.00;;;11.60;99.90;;;;;;5112924;28;20073;-72
2022/01/02 09:21:07;;;;;;;15.52;3.47;;;11.60;99.90;;;;;;5077809;28;20391;-73
2022/01/02 09:23:33;;;;;;;20.77;4.30;;;11.60;99.90;;;;;;5112782;28;20039;-75
2022/01/02 09:25:58;;;;;;;11.65;3.03;;;11.60;99.90;;;;;;5128961;28;20070;-73
2022/01/02 09:28:24;;;;;;;14.85;3.80;;;11.60;99.90;;;;;;5077916;28;20519;-74
2022/01/02 09:30:50;;;;;;;13.10;3.60;;;11.60;99.90;;;;;;5112366;28;20525;-74
2022/01/02 09:33:16;;;;;;;9.90;3.58;;;11.70;99.90;;;;;;5094504;28;20132;-73
2022/01/02 09:35:42;;;;;;;15.20;3.58;;;11.70;99.90;;;;;;5094109;28;20044;-73
2022/01/02 09:38:09;;;;;;;13.70;4.05;;;11.70;99.90;;;;;;5112818;28;20040;-73
2022/01/02 09:40:35;;;;;;;11.00;4.28;;;11.70;99.90;;;;;;5112614;28;20047;-73
2022/01/02 09:43:02;;;;;;;11.17;4.27;;;11.80;99.90;;;;;;5077938;28;20048;-73
2022/01/02 09:45:28;;;;;;;13.88;3.78;;;11.90;99.90;;;;;;5113296;28;20040;-71
2022/01/02 09:47:54;;;;;;;10.10;3.53;;;11.90;99.90;;;;;;5094486;28;20095;-75
2022/01/02 09:50:21;;;;;;;15.05;3.78;;;11.90;99.90;;;;;;5094954;28;20043;-75
2022/01/02 09:52:49;;;;;;;9.53;3.10;;;11.90;99.90;;;;;;5113134;28;20047;-74
2022/01/02 09:55:15;;;;;;;10.68;3.38;;;11.90;99.90;;;;;;5131266;27;20297;-75
2022/01/02 09:57:45;;;;;;;11.40;3.17;;;11.90;99.90;;;;;;5116481;28;20054;-74
2022/01/02 10:00:12;;;;;;;10.52;3.58;;;11.90;99.90;;;;;;5098612;28;20109;-74
2022/01/02 10:03:04;;;;;;;12.00;3.83;;;12.00;99.90;;;;;;5098319;28;20081;-76
2022/01/02 10:05:51;;;;;;;13.98;3.88;;;12.00;99.90;;;;;;5117538;28;20182;-74
2022/01/02 10:08:39;;;;;;;13.52;3.95;;;12.10;99.90;;;;;;5098687;28;20058;-74
2022/01/02 10:11:23;;;;;;;12.73;4.32;;;12.10;99.90;;;;;;5116996;28;20063;-73
2022/01/02 10:13:54;;;;;;;15.15;4.05;;;12.10;99.90;;;;;;5081585;28;20126;-74
2022/01/02 10:16:36;;;;;;;16.08;4.15;;;12.20;99.90;;;;;;5132660;27;20047;-75
2022/01/02 10:19:29;;;;;;;11.73;3.88;;;12.10;99.90;;;;;;5115873;28;20047;-73
2022/01/02 10:22:00;;;;;;;13.30;3.95;;;12.20;99.90;;;;;;5116242;28;20079;-74
2022/01/02 10:24:31;;;;;;;11.23;3.70;;;12.20;99.90;;;;;;5098000;28;20051;-74
2022/01/02 10:27:16;;;;;;;16.42;4.60;;;12.20;99.90;;;;;;5131653;27;20385;-73
2022/01/02 10:29:42;;;;;;;12.43;4.60;;;12.20;99.90;;;;;;5115186;28;20464;-74
2022/01/02 10:32:28;;;;;;;10.55;4.00;;;12.30;99.90;;;;;;5115165;28;20285;-74
2022/01/02 10:35:06;;;;;;;13.65;4.65;;;12.30;99.90;;;;;;5115499;28;20355;-73
2022/01/02 10:37:32;;;;;;;12.15;4.28;;;12.30;99.90;;;;;;5096903;28;20050;-73
2022/01/02 10:39:58;;;;;;;11.07;4.63;;;12.30;99.90;;;;;;5096740;28;20133;-72
2022/01/02 10:42:23;;;;;;;15.15;4.43;;;12.30;99.90;;;;;;5097533;28;20044;-72
2022/01/02 10:44:49;;;;;;;14.93;4.80;;;12.30;99.90;;;;;;5115248;28;20046;-73
2022/01/02 10:47:16;;;;;;;11.70;4.40;;;12.30;99.90;;;;;;5101041;28;20080;-73
2022/01/02 10:50:05;;;;;;;14.82;5.00;;;12.40;99.90;;;;;;5122181;28;20051;-74
2022/01/02 10:52:41;;;;;;;11.60;4.88;;;12.40;99.90;;;;;;5087952;28;20489;-74
2022/01/02 10:55:21;;;;;;;9.50;4.78;;;12.40;99.90;;;;;;5102907;28;20092;-73
2022/01/02 10:57:49;;;;;;;10.73;4.82;;;12.50;99.90;;;;;;5120211;28;20051;-74
2022/01/02 11:00:19;;;;;;;12.43;5.07;;;12.50;99.90;;;;;;5120822;28;20051;-74
2022/01/02 11:02:46;;;;;;;18.30;5.40;;;12.50;99.90;;;;;;5102399;28;20055;-74
2022/01/02 11:05:14;;;;;;;12.60;4.73;;;12.50;99.90;;;;;;5121308;28;20104;-74
2022/01/02 11:07:42;;;;;;;12.90;4.93;;;12.60;99.90;;;;;;5119395;28;20052;-73
2022/01/02 11:10:10;;;;;;;12.77;5.70;;;12.50;99.90;;;;;;5137156;27;20601;-74
2022/01/02 11:12:42;;;;;;;13.45;5.28;;;12.50;99.90;;;;;;5120683;28;20047;-74
2022/01/02 11:15:13;;;;;;;17.55;5.80;;;12.40;99.90;;;;;;5120994;28;20125;-75
2022/01/02 11:17:38;;;;;;;15.65;6.28;;;12.40;99.90;;;;;;5121618;28;20073;-73
2022/01/02 11:20:10;;;;;;;17.15;5.18;;;12.40;99.90;;;;;;5103602;28;20051;-74
2022/01/02 11:23:01;;;;;;;17.42;6.30;;;12.50;99.90;;;;;;5123976;28;20048;-73
2022/01/02 11:25:50;;;;;;;15.55;5.32;;;12.50;99.90;;;;;;5121625;28;20119;-75
2022/01/02 11:28:27;;;;;;;16.05;5.38;;;12.50;99.90;;;;;;5135143;27;20079;-75
2022/01/02 11:30:53;;;;;;;;;;;12.50;99.90;;;;;;5120764;28;20318;-75
2022/01/02 11:33:27;;;;;;;13.52;4.50;;;12.50;99.90;;;;;;5122086;28;19927;-74
2022/01/02 11:35:56;;;;;;;13.02;5.43;;;12.40;99.90;;;;;;5103683;28;20043;-75
2022/01/02 11:38:22;;;;;;;18.75;5.75;;;12.50;99.90;;;;;;5137843;27;20051;-75
2022/01/02 11:40:59;;;;;;;10.85;4.55;;;12.50;99.90;;;;;;5121611;28;20118;-76
2022/01/02 11:43:46;;;;;;;13.77;4.93;;;12.50;99.90;;;;;;5102506;28;20039;-76
2022/01/02 11:46:22;;;;;;;12.68;4.40;;;12.40;99.90;;;;;;5137643;27;20055;-73
2022/01/02 11:49:15;;;;;;;17.05;5.00;;;12.40;99.90;;;;;;5119289;28;20454;-74
2022/01/02 11:51:47;;;;;;;14.35;4.90;;;12.40;99.90;;;;;;5120625;28;20042;-75
2022/01/02 11:54:46;;;;;;;13.35;4.75;;;12.40;99.90;;;;;;5114803;28;20100;-75
2022/01/02 11:57:12;;;;;;;14.45;5.32;;;12.40;99.90;;;;;;5114401;28;20052;-73
2022/01/02 11:59:43;;;;;;;11.30;5.20;;;12.40;99.90;;;;;;5103634;28;20040;-75
2022/01/02 12:02:18;;;;;;;14.77;5.55;;;12.40;99.90;;;;;;5114730;28;20123;-75
2022/01/02 12:05:03;;;;;;;11.07;5.15;;;12.40;99.90;;;;;;5130588;27;20043;-75
2022/01/02 12:10:34;;;;;;;13.57;5.18;;;12.40;99.90;;;;;;5114940;28;20039;-75
2022/01/02 12:13:00;;;;;;;13.32;4.63;;;12.40;99.90;;;;;;5113395;28;20139;-76
2022/01/02 12:15:34;;;;;;;15.07;4.50;;;12.40;99.90;;;;;;5096268;28;20062;-75
2022/01/02 12:18:31;;;;;;;17.95;4.70;;;12.50;99.90;;;;;;5130476;27;20039;-75
2022/01/02 12:20:57;;;;;;;20.40;5.32;;;12.50;99.90;;;;;;5113672;28;20421;-74
2022/01/02 12:23:41;;;;;;;15.77;4.85;;;12.50;99.90;;;;;;5114528;28;20043;-76
2022/01/02 12:26:21;;;;;;;11.40;4.43;;;12.50;99.90;;;;;;5124009;28;20050;-74
2022/01/02 12:29:00;;;;;;;16.73;4.30;;;12.50;99.90;;;;;;5145029;27;20056;-75
2022/01/02 12:31:29;;;;;;;17.98;4.85;;;12.50;99.90;;;;;;5126519;28;20131;-75
2022/01/02 12:34:18;;;;;;;15.07;4.00;;;12.50;99.90;;;;;;5138779;27;20139;-76
2022/01/02 12:36:49;;;;;;;16.60;4.40;;;12.50;99.90;;;;;;5123379;28;20357;-75
2022/01/02 12:39:24;;;;;;;13.90;4.43;;;12.50;99.90;;;;;;5104551;28;20424;-75
2022/01/02 12:41:50;;;;;;;14.00;4.53;;;12.50;99.90;;;;;;5137119;27;20083;-76
2022/01/02 12:44:25;;;;;;;17.67;4.38;;;12.40;99.90;;;;;;5137863;27;20051;-76
2022/01/02 12:46:53;;;;;;;15.43;4.20;;;12.50;99.90;;;;;;5103544;28;20062;-75
2022/01/02 12:49:21;;;;;;;16.80;4.20;;;12.50;99.90;;;;;;5121516;28;20516;-76
2022/01/02 12:51:49;;;;;;;13.48;2.70;;;12.50;99.90;;;;;;5121475;28;20073;-76
2022/01/02 12:54:18;;;;;;;11.77;2.45;;;12.50;99.90;;;;;;5136971;27;20151;-76